Time,TemperatureF,DewpointF,PressureIn,WindDirection,WindDirectionDegrees,WindSpeedMPH,WindSpeedGustMPH,Humidity,HourlyPrecipIn,Conditions,Clouds,dailyrainin,SoftwareType,DateUTC
2013-02-15 00:00:00,51.1,38.1,30.07,ESE,112,6.0,7.0,61,0.00,,,0.00,VWS V14.01,2013-02-15 06:00:00,
2013-02-15 00:05:00,51.4,38.0,30.07,ESE,110,4.0,8.0,60,0.00,,,0.00,VWS V14.01,2013-02-15 06:05:00,
2013-02-15 00:10:00,51.4,38.0,30.07,ESE,115,5.0,6.0,60,0.00,,,0.00,VWS V14.01,2013-02-15 06:10:00,
2013-02-15 00:15:00,51.2,37.8,30.08,ESE,107,4.0,6.0,60,0.00,,,0.00,VWS V14.01,2013-02-15 06:15:00,
2013-02-15 00:20:00,51.0,37.6,30.08,ESE,109,3.0,6.0,60,0.00,,,0.00,VWS V14.01,2013-02-15 06:20:00,
2013-02-15 00:25:00,50.6,37.2,30.08,ESE,113,3.0,4.0,60,0.00,,,0.00,VWS V14.01,2013-02-15 06:25:00,
2013-02-15 00:30:00,50.2,36.9,30.08,ESE,112,1.0,3.0,60,0.00,,,0.00,VWS V14.01,2013-02-15 06:30:00,
2013-02-15 00:35:00,49.8,36.9,30.08,ESE,112,1.0,2.0,61,0.00,,,0.00,VWS V14.01,2013-02-15 06:35:00,
2013-02-15 00:40:00,49.6,36.7,30.08,ESE,103,1.0,3.0,61,0.00,,,0.00,VWS V14.01,2013-02-15 06:40:00,
2013-02-15 00:45:00,49.4,36.5,30.08,East,87,0.0,2.0,61,0.00,,,0.00,VWS V14.01,2013-02-15 06:45:00,
2013-02-15 00:50:00,48.9,36.1,30.08,East,87,0.0,0.0,61,0.00,,,0.00,VWS V14.01,2013-02-15 06:50:00,
2013-02-15 00:55:00,48.4,36.0,30.08,NE,41,0.0,0.0,62,0.00,,,0.00,VWS V14.01,2013-02-15 06:55:00,
2013-02-15 01:00:00,48.2,36.2,30.08,NE,41,0.0,0.0,63,0.00,,,0.00,VWS V14.01,2013-02-15 07:00:00,
2013-02-15 01:05:00,48.0,36.0,30.09,NE,40,0.0,0.0,63,0.00,,,0.00,VWS V14.01,2013-02-15 07:05:00,
2013-02-15 01:10:00,48.4,36.0,30.09,NE,41,0.0,0.0,62,0.00,,,0.00,VWS V14.01,2013-02-15 07:10:00,
2013-02-15 01:15:00,48.3,35.9,30.09,NE,41,0.0,0.0,62,0.00,,,0.00,VWS V14.01,2013-02-15 07:15:00,
2013-02-15 01:20:00,47.8,35.8,30.09,NE,40,0.0,0.0,63,0.00,,,0.00,VWS V14.01,2013-02-15 07:20:00,
2013-02-15 01:25:00,47.3,35.4,30.09,NE,41,0.0,0.0,63,0.00,,,0.00,VWS V14.01,2013-02-15 07:25:00,
2013-02-15 01:30:00,46.9,35.4,30.09,NE,41,0.0,0.0,64,0.00,,,0.00,VWS V14.01,2013-02-15 07:30:00,
2013-02-15 01:35:00,47.4,35.8,30.09,NE,40,1.0,2.0,64,0.00,,,0.00,VWS V14.01,2013-02-15 07:35:00,
2013-02-15 01:40:00,47.1,35.6,30.09,NE,40,0.0,1.0,64,0.00,,,0.00,VWS V14.01,2013-02-15 07:40:00,
2013-02-15 01:45:00,46.5,35.4,30.09,NE,40,0.0,0.0,65,0.00,,,0.00,VWS V14.01,2013-02-15 07:45:00,
2013-02-15 01:50:00,46.1,35.4,30.09,NE,40,0.0,1.0,66,0.00,,,0.00,VWS V14.01,2013-02-15 07:50:00,
2013-02-15 01:55:00,46.1,35.4,30.09,NE,40,0.0,0.0,66,0.00,,,0.00,VWS V14.01,2013-02-15 07:55:00,
2013-02-15 02:00:00,46.7,35.6,30.09,NE,41,0.0,0.0,65,0.00,,,0.00,VWS V14.01,2013-02-15 08:00:00,
2013-02-15 02:05:00,46.8,35.3,30.09,ESE,123,2.0,3.0,64,0.00,,,0.00,VWS V14.01,2013-02-15 08:05:00,
2013-02-15 02:10:00,47.1,35.2,30.09,ESE,123,1.0,2.0,63,0.00,,,0.00,VWS V14.01,2013-02-15 08:10:00,
2013-02-15 02:15:00,47.0,35.1,30.09,NE,43,0.0,1.0,63,0.00,,,0.00,VWS V14.01,2013-02-15 08:15:00,
2013-02-15 02:20:00,47.1,35.2,30.09,NE,45,1.0,2.0,63,0.00,,,0.00,VWS V14.01,2013-02-15 08:20:00,
2013-02-15 02:25:00,47.5,35.5,30.09,NE,49,0.0,2.0,63,0.00,,,0.00,VWS V14.01,2013-02-15 08:25:00,
2013-02-15 02:30:00,46.7,35.2,30.09,NNW,331,0.0,1.0,64,0.00,,,0.00,VWS V14.01,2013-02-15 08:30:00,
2013-02-15 02:35:00,46.0,34.9,30.10,NNW,330,0.0,0.0,65,0.00,,,0.00,VWS V14.01,2013-02-15 08:35:00,
2013-02-15 02:40:00,45.8,34.7,30.09,NNW,331,0.0,1.0,65,0.00,,,0.00,VWS V14.01,2013-02-15 08:40:00,
2013-02-15 02:45:00,46.4,34.5,30.09,North,355,0.0,0.0,63,0.00,,,0.00,VWS V14.01,2013-02-15 08:45:00,
2013-02-15 02:50:00,46.7,34.4,30.10,North,355,0.0,1.0,62,0.00,,,0.00,VWS V14.01,2013-02-15 08:50:00,
2013-02-15 02:55:00,46.4,34.1,30.10,NNE,26,0.0,1.0,62,0.00,,,0.00,VWS V14.01,2013-02-15 08:55:00,
2013-02-15 02:59:00,46.1,33.8,30.10,NNE,25,0.0,1.0,62,0.00,,,0.00,VWS V14.01,2013-02-15 08:59:00,
2013-02-15 03:00:00,46.0,33.7,30.10,NNE,25,0.0,1.0,62,0.00,,,0.00,VWS V14.01,2013-02-15 09:00:00,
2013-02-15 03:04:00,45.4,33.6,30.10,NNE,26,0.0,1.0,63,0.00,,,0.00,VWS V14.01,2013-02-15 09:04:00,
2013-02-15 03:05:00,45.3,33.5,30.10,NNE,26,0.0,1.0,63,0.00,,,0.00,VWS V14.01,2013-02-15 09:05:00,
2013-02-15 03:09:00,44.4,33.8,30.10,NNE,26,0.0,1.0,66,0.00,,,0.00,VWS V14.01,2013-02-15 09:09:00,
2013-02-15 03:10:00,44.3,33.7,30.10,NNE,26,0.0,1.0,66,0.00,,,0.00,VWS V14.01,2013-02-15 09:10:00,
2013-02-15 03:14:00,43.7,33.5,30.09,NNE,26,0.0,0.0,67,0.00,,,0.00,VWS V14.01,2013-02-15 09:14:00,
2013-02-15 03:15:00,43.7,33.5,30.09,NNE,26,0.0,0.0,67,0.00,,,0.00,VWS V14.01,2013-02-15 09:15:00,
2013-02-15 03:19:00,43.3,33.5,30.10,NNE,25,0.0,0.0,68,0.00,,,0.00,VWS V14.01,2013-02-15 09:19:00,
2013-02-15 03:20:00,43.2,33.4,30.10,NNE,25,0.0,0.0,68,0.00,,,0.00,VWS V14.01,2013-02-15 09:20:00,
2013-02-15 03:24:00,43.5,34.0,30.10,NNE,26,0.0,0.0,69,0.00,,,0.00,VWS V14.01,2013-02-15 09:24:00,
2013-02-15 03:25:00,43.5,34.0,30.10,NNE,26,0.0,0.0,69,0.00,,,0.00,VWS V14.01,2013-02-15 09:25:00,
2013-02-15 03:29:00,44.0,34.1,30.10,NNE,26,0.0,1.0,68,0.00,,,0.00,VWS V14.01,2013-02-15 09:29:00,
2013-02-15 03:30:00,44.1,34.2,30.10,NNE,26,0.0,1.0,68,0.00,,,0.00,VWS V14.01,2013-02-15 09:30:00,
2013-02-15 03:34:00,44.5,34.2,30.10,NNE,26,0.0,0.0,67,0.00,,,0.00,VWS V14.01,2013-02-15 09:34:00,
2013-02-15 03:35:00,44.5,34.2,30.10,NNE,26,0.0,0.0,67,0.00,,,0.00,VWS V14.01,2013-02-15 09:35:00,
2013-02-15 03:39:00,44.7,34.0,30.10,NNE,26,0.0,0.0,66,0.00,,,0.00,VWS V14.01,2013-02-15 09:39:00,
2013-02-15 03:40:00,44.7,34.0,30.10,NNE,26,0.0,0.0,66,0.00,,,0.00,VWS V14.01,2013-02-15 09:40:00,
2013-02-15 03:44:00,44.6,34.0,30.10,NNE,26,0.0,0.0,66,0.00,,,0.00,VWS V14.01,2013-02-15 09:44:00,
2013-02-15 03:45:00,44.6,34.0,30.10,NNE,26,0.0,0.0,66,0.00,,,0.00,VWS V14.01,2013-02-15 09:45:00,
2013-02-15 03:49:00,44.7,34.0,30.10,NNE,26,0.0,0.0,66,0.00,,,0.00,VWS V14.01,2013-02-15 09:49:00,
2013-02-15 03:50:00,44.7,34.0,30.10,NNE,26,0.0,0.0,66,0.00,,,0.00,VWS V14.01,2013-02-15 09:50:00,
2013-02-15 03:54:00,44.6,33.6,30.10,NNE,26,0.0,0.0,65,0.00,,,0.00,VWS V14.01,2013-02-15 09:54:00,
2013-02-15 03:55:00,44.5,33.5,30.10,NNE,26,0.0,0.0,65,0.00,,,0.00,VWS V14.01,2013-02-15 09:55:00,
2013-02-15 03:59:00,44.0,33.4,30.10,NNE,26,0.0,0.0,66,0.00,,,0.00,VWS V14.01,2013-02-15 09:59:00,
2013-02-15 04:00:00,44.0,33.4,30.10,NNE,26,0.0,0.0,66,0.00,,,0.00,VWS V14.01,2013-02-15 10:00:00,
2013-02-15 04:04:00,43.6,33.4,30.10,NNE,26,0.0,0.0,67,0.00,,,0.00,VWS V14.01,2013-02-15 10:04:00,
2013-02-15 04:05:00,43.6,33.4,30.10,NNE,26,0.0,0.0,67,0.00,,,0.00,VWS V14.01,2013-02-15 10:05:00,
2013-02-15 04:09:00,43.8,33.6,30.10,NNE,26,0.0,0.0,67,0.00,,,0.00,VWS V14.01,2013-02-15 10:09:00,
2013-02-15 04:10:00,43.8,33.6,30.10,NNE,26,0.0,0.0,67,0.00,,,0.00,VWS V14.01,2013-02-15 10:10:00,
2013-02-15 04:14:00,44.0,33.4,30.11,NNE,26,0.0,0.0,66,0.00,,,0.00,VWS V14.01,2013-02-15 10:14:00,
2013-02-15 04:15:00,43.9,33.3,30.11,NNE,26,0.0,0.0,66,0.00,,,0.00,VWS V14.01,2013-02-15 10:15:00,
2013-02-15 04:19:00,43.5,33.3,30.11,NNE,26,0.0,0.0,67,0.00,,,0.00,VWS V14.01,2013-02-15 10:19:00,
2013-02-15 04:20:00,43.4,33.6,30.11,NNE,26,0.0,0.0,68,0.00,,,0.00,VWS V14.01,2013-02-15 10:20:00,
2013-02-15 04:24:00,43.0,33.5,30.11,NNE,26,0.0,0.0,69,0.00,,,0.00,VWS V14.01,2013-02-15 10:24:00,
2013-02-15 04:25:00,42.9,33.4,30.11,NNE,26,0.0,0.0,69,0.00,,,0.00,VWS V14.01,2013-02-15 10:25:00,
2013-02-15 04:29:00,42.5,33.1,30.11,NNE,26,0.0,0.0,69,0.00,,,0.00,VWS V14.01,2013-02-15 10:29:00,
2013-02-15 04:30:00,42.5,33.1,30.11,NNE,26,0.0,0.0,69,0.00,,,0.00,VWS V14.01,2013-02-15 10:30:00,
2013-02-15 04:34:00,42.1,33.0,30.11,NNE,26,0.0,0.0,70,0.00,,,0.00,VWS V14.01,2013-02-15 10:34:00,
2013-02-15 04:35:00,42.0,32.9,30.11,NNE,26,0.0,0.0,70,0.00,,,0.00,VWS V14.01,2013-02-15 10:35:00,
2013-02-15 04:39:00,41.3,33.0,30.11,NNE,26,0.0,0.0,72,0.00,,,0.00,VWS V14.01,2013-02-15 10:39:00,
2013-02-15 04:40:00,41.2,32.9,30.11,NNE,26,0.0,0.0,72,0.00,,,0.00,VWS V14.01,2013-02-15 10:40:00,
2013-02-15 04:44:00,40.9,33.6,30.13,WNW,294,3.0,5.0,75,0.00,,,0.00,VWS V14.01,2013-02-15 10:44:00,
2013-02-15 04:45:00,40.9,33.6,30.13,WNW,298,4.0,5.0,75,0.00,,,0.00,VWS V14.01,2013-02-15 10:45:00,
2013-02-15 04:49:00,42.0,34.3,30.13,NNW,329,0.0,6.0,74,0.00,,,0.00,VWS V14.01,2013-02-15 10:49:00,
2013-02-15 04:50:00,42.2,34.5,30.13,NNW,329,0.0,6.0,74,0.00,,,0.00,VWS V14.01,2013-02-15 10:50:00,
2013-02-15 04:54:00,42.7,34.7,30.13,NNW,329,0.0,1.0,73,0.00,,,0.00,VWS V14.01,2013-02-15 10:54:00,
2013-02-15 04:55:00,42.8,34.4,30.13,NNW,329,1.0,2.0,72,0.00,,,0.00,VWS V14.01,2013-02-15 10:55:00,
2013-02-15 04:59:00,42.7,34.0,30.13,NW,307,2.0,3.0,71,0.00,,,0.00,VWS V14.01,2013-02-15 10:59:00,
2013-02-15 05:00:00,42.7,34.0,30.13,NW,305,2.0,3.0,71,0.00,,,0.00,VWS V14.01,2013-02-15 11:00:00,
2013-02-15 05:04:00,42.7,34.0,30.13,NW,307,1.0,2.0,71,0.00,,,0.00,VWS V14.01,2013-02-15 11:04:00,
2013-02-15 05:05:00,42.8,34.1,30.13,NW,307,2.0,3.0,71,0.00,,,0.00,VWS V14.01,2013-02-15 11:05:00,
2013-02-15 05:09:00,42.9,33.8,30.14,NW,310,0.0,3.0,70,0.00,,,0.00,VWS V14.01,2013-02-15 11:09:00,
2013-02-15 05:10:00,43.0,33.9,30.14,NW,310,0.0,3.0,70,0.00,,,0.00,VWS V14.01,2013-02-15 11:10:00,
2013-02-15 05:14:00,42.8,33.7,30.14,NW,310,0.0,1.0,70,0.00,,,0.00,VWS V14.01,2013-02-15 11:14:00,
2013-02-15 05:15:00,42.8,33.7,30.14,NW,310,0.0,1.0,70,0.00,,,0.00,VWS V14.01,2013-02-15 11:15:00,
2013-02-15 05:19:00,42.5,33.4,30.14,NW,310,0.0,1.0,70,0.00,,,0.00,VWS V14.01,2013-02-15 11:19:00,
2013-02-15 05:20:00,42.5,33.4,30.14,NW,310,0.0,1.0,70,0.00,,,0.00,VWS V14.01,2013-02-15 11:20:00,
2013-02-15 05:24:00,42.3,33.6,30.15,NW,310,2.0,3.0,71,0.00,,,0.00,VWS V14.01,2013-02-15 11:24:00,
2013-02-15 05:25:00,42.4,33.7,30.15,NW,324,2.0,3.0,71,0.00,,,0.00,VWS V14.01,2013-02-15 11:25:00,
2013-02-15 05:29:00,42.6,33.2,30.15,NW,324,1.0,2.0,69,0.00,,,0.00,VWS V14.01,2013-02-15 11:29:00,
2013-02-15 05:30:00,42.7,33.2,30.15,NW,324,1.0,2.0,69,0.00,,,0.00,VWS V14.01,2013-02-15 11:30:00,
2013-02-15 05:34:00,42.8,33.3,30.15,NW,324,0.0,2.0,69,0.00,,,0.00,VWS V14.01,2013-02-15 11:34:00,
2013-02-15 05:35:00,42.7,33.2,30.15,NW,324,0.0,2.0,69,0.00,,,0.00,VWS V14.01,2013-02-15 11:35:00,
2013-02-15 05:39:00,42.6,32.8,30.15,NW,324,0.0,0.0,68,0.00,,,0.00,VWS V14.01,2013-02-15 11:39:00,
2013-02-15 05:40:00,42.5,32.7,30.15,NW,324,0.0,0.0,68,0.00,,,0.00,VWS V14.01,2013-02-15 11:40:00,
2013-02-15 05:44:00,42.4,33.0,30.15,NW,324,0.0,0.0,69,0.00,,,0.00,VWS V14.01,2013-02-15 11:44:00,
2013-02-15 05:45:00,42.3,32.9,30.15,NW,323,0.0,0.0,69,0.00,,,0.00,VWS V14.01,2013-02-15 11:45:00,
2013-02-15 05:49:00,41.9,32.8,30.15,NW,324,0.0,0.0,70,0.00,,,0.00,VWS V14.01,2013-02-15 11:49:00,
2013-02-15 05:50:00,41.7,32.7,30.15,NW,324,1.0,1.0,70,0.00,,,0.00,VWS V14.01,2013-02-15 11:50:00,
2013-02-15 05:54:00,40.3,32.3,30.16,NW,324,0.0,1.0,73,0.00,,,0.00,VWS V14.01,2013-02-15 11:54:00,
2013-02-15 05:55:00,40.2,32.2,30.16,NW,324,0.0,1.0,73,0.00,,,0.00,VWS V14.01,2013-02-15 11:55:00,
2013-02-15 05:59:00,39.5,32.2,30.16,NW,324,0.0,0.0,75,0.00,,,0.00,VWS V14.01,2013-02-15 11:59:00,
2013-02-15 06:00:00,39.4,32.2,30.16,NW,324,0.0,0.0,75,0.00,,,0.00,VWS V14.01,2013-02-15 12:00:00,
2013-02-15 06:04:00,39.2,32.3,30.16,NW,324,0.0,0.0,76,0.00,,,0.00,VWS V14.01,2013-02-15 12:04:00,
2013-02-15 06:05:00,39.1,32.2,30.16,NW,324,0.0,0.0,76,0.00,,,0.00,VWS V14.01,2013-02-15 12:05:00,
2013-02-15 06:09:00,38.6,31.7,30.16,NW,324,0.0,0.0,76,0.00,,,0.00,VWS V14.01,2013-02-15 12:09:00,
2013-02-15 06:10:00,38.4,31.5,30.16,NW,325,0.0,0.0,76,0.00,,,0.00,VWS V14.01,2013-02-15 12:10:00,
2013-02-15 06:14:00,37.9,31.4,30.17,NW,324,0.0,0.0,77,0.00,,,0.00,VWS V14.01,2013-02-15 12:14:00,
2013-02-15 06:15:00,37.9,31.4,30.16,NW,324,0.0,0.0,77,0.00,,,0.00,VWS V14.01,2013-02-15 12:15:00,
2013-02-15 06:19:00,37.4,30.9,30.17,NW,324,0.0,0.0,77,0.00,,,0.00,VWS V14.01,2013-02-15 12:19:00,
2013-02-15 06:20:00,37.3,31.1,30.17,NW,324,0.0,0.0,78,0.00,,,0.00,VWS V14.01,2013-02-15 12:20:00,
2013-02-15 06:24:00,36.8,30.6,30.17,NW,324,0.0,0.0,78,0.00,,,0.00,VWS V14.01,2013-02-15 12:24:00,
2013-02-15 06:25:00,36.7,30.5,30.17,NW,324,0.0,0.0,78,0.00,,,0.00,VWS V14.01,2013-02-15 12:25:00,
2013-02-15 06:29:00,36.7,31.4,30.17,NW,324,0.0,0.0,81,0.00,,,0.00,VWS V14.01,2013-02-15 12:29:00,
2013-02-15 06:30:00,36.8,31.5,30.17,NW,324,1.0,1.0,81,0.00,,,0.00,VWS V14.01,2013-02-15 12:30:00,
2013-02-15 06:34:00,37.2,31.9,30.17,NNW,329,0.0,3.0,81,0.00,,,0.00,VWS V14.01,2013-02-15 12:34:00,
2013-02-15 06:35:00,37.2,31.6,30.18,NNW,329,1.0,3.0,80,0.00,,,0.00,VWS V14.01,2013-02-15 12:35:00,
2013-02-15 06:39:00,37.6,32.0,30.18,NNW,329,2.0,2.0,80,0.00,,,0.00,VWS V14.01,2013-02-15 12:39:00,
2013-02-15 06:40:00,37.7,31.8,30.18,NNW,329,2.0,2.0,79,0.00,,,0.00,VWS V14.01,2013-02-15 12:40:00,
2013-02-15 06:44:00,38.1,31.9,30.18,NW,320,1.0,2.0,78,0.00,,,0.00,VWS V14.01,2013-02-15 12:44:00,
2013-02-15 06:45:00,38.1,31.9,30.18,NW,324,0.0,2.0,78,0.00,,,0.00,VWS V14.01,2013-02-15 12:45:00,
2013-02-15 06:49:00,38.1,31.9,30.18,North,355,0.0,1.0,78,0.00,,,0.00,VWS V14.01,2013-02-15 12:49:00,
2013-02-15 06:50:00,37.9,31.4,30.18,North,355,0.0,1.0,77,0.00,,,0.00,VWS V14.01,2013-02-15 12:50:00,
2013-02-15 06:54:00,37.4,31.2,30.19,North,355,0.0,0.0,78,0.00,,,0.00,VWS V14.01,2013-02-15 12:54:00,
2013-02-15 06:55:00,37.2,31.0,30.19,North,355,0.0,0.0,78,0.00,,,0.00,VWS V14.01,2013-02-15 12:55:00,
2013-02-15 06:59:00,36.8,30.9,30.19,North,355,0.0,0.0,79,0.00,,,0.00,VWS V14.01,2013-02-15 12:59:00,
2013-02-15 07:00:00,36.7,30.8,30.19,North,355,0.0,0.0,79,0.00,,,0.00,VWS V14.01,2013-02-15 13:00:00,
2013-02-15 07:04:00,36.3,30.7,30.19,North,355,0.0,0.0,80,0.00,,,0.00,VWS V14.01,2013-02-15 13:04:00,
2013-02-15 07:05:00,36.2,30.6,30.19,North,355,0.0,0.0,80,0.00,,,0.00,VWS V14.01,2013-02-15 13:05:00,
2013-02-15 07:09:00,36.1,30.8,30.19,North,355,0.0,0.0,81,0.00,,,0.00,VWS V14.01,2013-02-15 13:09:00,
2013-02-15 07:10:00,36.1,31.1,30.19,North,355,0.0,0.0,82,0.00,,,0.00,VWS V14.01,2013-02-15 13:10:00,
2013-02-15 07:14:00,36.3,31.6,30.19,North,355,0.0,0.0,83,0.00,,,0.00,VWS V14.01,2013-02-15 13:14:00,
2013-02-15 07:15:00,36.4,31.4,30.19,North,355,0.0,0.0,82,0.00,,,0.00,VWS V14.01,2013-02-15 13:15:00,
2013-02-15 07:19:00,36.3,31.0,30.20,ENE,73,2.0,3.0,81,0.00,,,0.00,VWS V14.01,2013-02-15 13:19:00,
2013-02-15 07:20:00,36.2,30.9,30.20,ENE,73,0.0,3.0,81,0.00,,,0.00,VWS V14.01,2013-02-15 13:20:00,
2013-02-15 07:24:00,36.7,31.7,30.20,ENE,71,0.0,0.0,82,0.00,,,0.00,VWS V14.01,2013-02-15 13:24:00,
2013-02-15 07:25:00,36.8,31.8,30.20,ENE,71,0.0,1.0,82,0.00,,,0.00,VWS V14.01,2013-02-15 13:25:00,
2013-02-15 07:29:00,36.8,31.5,30.20,ENE,72,1.0,1.0,81,0.00,,,0.00,VWS V14.01,2013-02-15 13:29:00,
2013-02-15 07:30:00,36.9,31.6,30.21,North,357,0.0,2.0,81,0.00,,,0.00,VWS V14.01,2013-02-15 13:30:00,
2013-02-15 07:34:00,37.5,32.2,30.21,NW,315,2.0,2.0,81,0.00,,,0.00,VWS V14.01,2013-02-15 13:34:00,
2013-02-15 07:35:00,37.7,32.4,30.21,NNW,328,1.0,3.0,81,0.00,,,0.00,VWS V14.01,2013-02-15 13:35:00,
2013-02-15 07:39:00,38.3,32.7,30.22,NW,321,3.0,3.0,80,0.00,,,0.00,VWS V14.01,2013-02-15 13:39:00,
2013-02-15 07:40:00,38.5,32.9,30.22,NW,323,2.0,3.0,80,0.00,,,0.00,VWS V14.01,2013-02-15 13:40:00,
2013-02-15 07:44:00,39.3,33.0,30.22,NW,322,1.0,2.0,78,0.00,,,0.00,VWS V14.01,2013-02-15 13:44:00,
2013-02-15 07:45:00,39.6,33.3,30.22,NW,322,1.0,2.0,78,0.00,,,0.00,VWS V14.01,2013-02-15 13:45:00,
2013-02-15 07:49:00,40.4,33.8,30.22,NW,322,0.0,1.0,77,0.00,,,0.00,VWS V14.01,2013-02-15 13:49:00,
2013-02-15 07:50:00,40.7,33.7,30.22,NW,322,0.0,1.0,76,0.00,,,0.00,VWS V14.01,2013-02-15 13:50:00,
2013-02-15 07:54:00,41.6,34.9,30.23,NW,322,0.0,1.0,77,0.00,,,0.00,VWS V14.01,2013-02-15 13:54:00,
2013-02-15 07:55:00,41.9,35.2,30.23,NW,322,0.0,1.0,77,0.00,,,0.00,VWS V14.01,2013-02-15 13:55:00,
2013-02-15 07:59:00,42.6,35.6,30.23,NW,322,0.0,0.0,76,0.00,,,0.00,VWS V14.01,2013-02-15 13:59:00,
2013-02-15 08:00:00,42.6,35.6,30.23,NW,322,1.0,1.0,76,0.00,,,0.00,VWS V14.01,2013-02-15 14:00:00,
2013-02-15 08:04:00,42.7,35.7,30.23,NW,322,0.0,0.0,76,0.00,,,0.00,VWS V14.01,2013-02-15 14:04:00,
2013-02-15 08:05:00,43.0,36.0,30.23,NW,322,0.0,1.0,76,0.00,,,0.00,VWS V14.01,2013-02-15 14:05:00,
2013-02-15 08:09:00,43.9,36.5,30.23,NW,322,0.0,1.0,75,0.00,,,0.00,VWS V14.01,2013-02-15 14:09:00,
2013-02-15 08:10:00,44.3,36.5,30.23,NW,322,0.0,1.0,74,0.00,,,0.00,VWS V14.01,2013-02-15 14:10:00,
2013-02-15 08:14:00,45.1,36.6,30.23,NW,322,1.0,1.0,72,0.00,,,0.00,VWS V14.01,2013-02-15 14:14:00,
2013-02-15 08:15:00,45.4,36.6,30.23,NW,322,0.0,1.0,71,0.00,,,0.00,VWS V14.01,2013-02-15 14:15:00,
2013-02-15 08:19:00,46.2,37.0,30.24,NW,322,0.0,1.0,70,0.00,,,0.00,VWS V14.01,2013-02-15 14:19:00,
2013-02-15 08:20:00,46.4,36.8,30.24,NW,322,0.0,1.0,69,0.00,,,0.00,VWS V14.01,2013-02-15 14:20:00,
2013-02-15 08:24:00,46.7,36.7,30.24,NNW,327,2.0,2.0,68,0.00,,,0.00,VWS V14.01,2013-02-15 14:24:00,
2013-02-15 08:25:00,46.7,36.7,30.24,NNW,327,2.0,3.0,68,0.00,,,0.00,VWS V14.01,2013-02-15 14:25:00,
2013-02-15 08:29:00,46.5,36.2,30.24,NW,324,4.0,4.0,67,0.00,,,0.00,VWS V14.01,2013-02-15 14:29:00,
2013-02-15 08:30:00,46.5,36.2,30.25,NNW,336,2.0,4.0,67,0.00,,,0.00,VWS V14.01,2013-02-15 14:30:00,
2013-02-15 08:34:00,46.6,36.6,30.25,NW,325,2.0,5.0,68,0.00,,,0.00,VWS V14.01,2013-02-15 14:34:00,
2013-02-15 08:35:00,46.7,36.7,30.25,NNW,331,2.0,5.0,68,0.00,,,0.00,VWS V14.01,2013-02-15 14:35:00,
2013-02-15 08:39:00,46.8,36.0,30.25,NNW,330,2.0,2.0,66,0.00,,,0.00,VWS V14.01,2013-02-15 14:39:00,
2013-02-15 08:40:00,46.9,36.5,30.25,NNW,331,1.0,2.0,67,0.00,,,0.00,VWS V14.01,2013-02-15 14:40:00,
2013-02-15 08:43:00,47.2,36.8,30.25,NNW,331,1.0,1.0,67,0.00,,,0.00,VWS V14.01,2013-02-15 14:43:00,
2013-02-15 08:45:00,47.4,37.0,30.25,NNW,331,1.0,1.0,67,0.00,,,0.00,VWS V14.01,2013-02-15 14:45:00,
2013-02-15 08:48:00,47.6,36.8,30.25,North,352,1.0,2.0,66,0.00,,,0.00,VWS V14.01,2013-02-15 14:48:00,
2013-02-15 08:50:00,47.7,36.9,30.25,North,352,0.0,2.0,66,0.00,,,0.00,VWS V14.01,2013-02-15 14:50:00,
2013-02-15 08:53:00,48.1,37.3,30.25,North,351,0.0,1.0,66,0.00,,,0.00,VWS V14.01,2013-02-15 14:53:00,
2013-02-15 08:55:00,48.3,37.9,30.26,North,351,0.0,1.0,67,0.00,,,0.00,VWS V14.01,2013-02-15 14:55:00,
2013-02-15 08:58:00,49.0,38.5,30.26,North,351,0.0,1.0,67,0.00,,,0.00,VWS V14.01,2013-02-15 14:58:00,
2013-02-15 09:00:00,49.2,38.3,30.26,North,357,1.0,3.0,66,0.00,,,0.00,VWS V14.01,2013-02-15 15:00:00,
2013-02-15 09:03:00,49.6,38.3,30.26,North,357,3.0,3.0,65,0.00,,,0.00,VWS V14.01,2013-02-15 15:03:00,
2013-02-15 09:05:00,49.7,38.0,30.26,NNE,17,7.0,10.0,64,0.00,,,0.00,VWS V14.01,2013-02-15 15:05:00,
2013-02-15 09:08:00,49.9,37.8,30.26,North,349,6.0,7.0,63,0.00,,,0.00,VWS V14.01,2013-02-15 15:08:00,
2013-02-15 09:10:00,49.9,37.8,30.26,NNE,20,6.0,8.0,63,0.00,,,0.00,VWS V14.01,2013-02-15 15:10:00,
2013-02-15 09:13:00,50.2,38.1,30.26,North,2,6.0,7.0,63,0.00,,,0.00,VWS V14.01,2013-02-15 15:13:00,
2013-02-15 09:15:00,50.4,37.9,30.27,NNE,18,7.0,9.0,62,0.00,,,0.00,VWS V14.01,2013-02-15 15:15:00,
2013-02-15 09:18:00,50.4,37.0,30.26,North,7,6.0,8.0,60,0.00,,,0.00,VWS V14.01,2013-02-15 15:18:00,
2013-02-15 09:20:00,50.4,37.5,30.26,NE,40,4.0,8.0,61,0.00,,,0.00,VWS V14.01,2013-02-15 15:20:00,
2013-02-15 09:23:00,50.6,37.2,30.26,NNE,20,2.0,8.0,60,0.00,,,0.00,VWS V14.01,2013-02-15 15:23:00,
2013-02-15 09:25:00,50.8,37.8,30.26,NNE,21,1.0,8.0,61,0.00,,,0.00,VWS V14.01,2013-02-15 15:25:00,
2013-02-15 09:28:00,51.0,37.2,30.26,NE,42,2.0,8.0,59,0.00,,,0.00,VWS V14.01,2013-02-15 15:28:00,
2013-02-15 09:30:00,51.1,38.1,30.26,East,81,3.0,8.0,61,0.00,,,0.00,VWS V14.01,2013-02-15 15:30:00,
2013-02-15 09:33:00,51.5,38.1,30.26,North,10,4.0,6.0,60,0.00,,,0.00,VWS V14.01,2013-02-15 15:33:00,
2013-02-15 09:35:00,51.6,37.8,30.26,North,9,0.0,6.0,59,0.00,,,0.00,VWS V14.01,2013-02-15 15:35:00,
2013-02-15 09:38:00,51.8,37.9,30.27,North,350,3.0,6.0,59,0.00,,,0.00,VWS V14.01,2013-02-15 15:38:00,
2013-02-15 09:40:00,51.8,37.9,30.27,North,352,5.0,7.0,59,0.00,,,0.00,VWS V14.01,2013-02-15 15:40:00,
2013-02-15 09:43:00,52.2,38.3,30.27,North,355,8.0,9.0,59,0.00,,,0.00,VWS V14.01,2013-02-15 15:43:00,
2013-02-15 09:45:00,52.3,38.0,30.27,North,8,5.0,9.0,58,0.00,,,0.00,VWS V14.01,2013-02-15 15:45:00,
2013-02-15 09:48:00,52.5,37.3,30.27,North,9,6.0,10.0,56,0.00,,,0.00,VWS V14.01,2013-02-15 15:48:00,
2013-02-15 09:50:00,52.5,37.7,30.27,North,7,7.0,10.0,57,0.00,,,0.00,VWS V14.01,2013-02-15 15:50:00,
2013-02-15 09:53:00,52.6,37.8,30.27,North,2,8.0,11.0,57,0.00,,,0.00,VWS V14.01,2013-02-15 15:53:00,
2013-02-15 09:55:00,52.6,37.8,30.27,North,9,10.0,11.0,57,0.00,,,0.00,VWS V14.01,2013-02-15 15:55:00,
2013-02-15 09:58:00,52.3,38.0,30.27,NNE,19,7.0,13.0,58,0.00,,,0.00,VWS V14.01,2013-02-15 15:58:00,
2013-02-15 10:00:00,52.2,37.4,30.27,NE,39,8.0,13.0,57,0.00,,,0.00,VWS V14.01,2013-02-15 16:00:00,
2013-02-15 10:03:00,52.1,38.2,30.28,NE,52,7.0,11.0,59,0.00,,,0.00,VWS V14.01,2013-02-15 16:03:00,
2013-02-15 10:05:00,52.0,38.1,30.28,NNE,29,8.0,11.0,59,0.00,,,0.00,VWS V14.01,2013-02-15 16:05:00,
2013-02-15 10:08:00,52.2,38.3,30.27,East,82,4.0,9.0,59,0.00,,,0.00,VWS V14.01,2013-02-15 16:08:00,
2013-02-15 10:10:00,52.3,38.4,30.27,NE,50,6.0,10.0,59,0.00,,,0.00,VWS V14.01,2013-02-15 16:10:00,
2013-02-15 10:13:00,52.3,38.4,30.27,NNE,21,6.0,10.0,59,0.00,,,0.00,VWS V14.01,2013-02-15 16:13:00,
2013-02-15 10:15:00,52.4,38.9,30.27,NNE,28,6.0,12.0,60,0.00,,,0.00,VWS V14.01,2013-02-15 16:15:00,
2013-02-15 10:18:00,52.8,39.3,30.28,East,85,7.0,11.0,60,0.00,,,0.00,VWS V14.01,2013-02-15 16:18:00,
2013-02-15 10:20:00,52.8,38.9,30.27,ENE,75,7.0,11.0,59,0.00,,,0.00,VWS V14.01,2013-02-15 16:20:00,
2013-02-15 10:23:00,53.1,38.7,30.28,ENE,70,7.0,11.0,58,0.00,,,0.00,VWS V14.01,2013-02-15 16:23:00,
2013-02-15 10:25:00,53.2,38.8,30.28,ENE,68,6.0,11.0,58,0.00,,,0.00,VWS V14.01,2013-02-15 16:25:00,
2013-02-15 10:28:00,53.6,39.6,30.27,ENE,66,5.0,10.0,59,0.00,,,0.00,VWS V14.01,2013-02-15 16:28:00,
2013-02-15 10:30:00,53.7,38.8,30.28,NNE,29,7.0,10.0,57,0.00,,,0.00,VWS V14.01,2013-02-15 16:30:00,
2013-02-15 10:33:00,53.6,38.8,30.27,ENE,64,8.0,11.0,57,0.00,,,0.00,VWS V14.01,2013-02-15 16:33:00,
2013-02-15 10:35:00,53.7,38.8,30.28,NE,49,6.0,12.0,57,0.00,,,0.00,VWS V14.01,2013-02-15 16:35:00,
2013-02-15 10:38:00,53.8,39.4,30.27,ENE,59,9.0,12.0,58,0.00,,,0.00,VWS V14.01,2013-02-15 16:38:00,
2013-02-15 10:40:00,53.8,38.9,30.27,NE,34,7.0,12.0,57,0.00,,,0.00,VWS V14.01,2013-02-15 16:40:00,
2013-02-15 10:43:00,54.0,39.1,30.27,NE,45,11.0,11.0,57,0.00,,,0.00,VWS V14.01,2013-02-15 16:43:00,
2013-02-15 10:45:00,54.2,39.3,30.27,ENE,75,7.0,11.0,57,0.00,,,0.00,VWS V14.01,2013-02-15 16:45:00,
2013-02-15 10:48:00,54.2,38.9,30.28,ENE,77,8.0,12.0,56,0.00,,,0.00,VWS V14.01,2013-02-15 16:48:00,
2013-02-15 10:50:00,54.2,39.3,30.28,ENE,75,9.0,13.0,57,0.00,,,0.00,VWS V14.01,2013-02-15 16:50:00,
2013-02-15 10:53:00,54.5,39.6,30.28,NE,46,9.0,13.0,57,0.00,,,0.00,VWS V14.01,2013-02-15 16:53:00,
2013-02-15 10:55:00,54.7,39.3,30.28,ENE,64,10.0,13.0,56,0.00,,,0.00,VWS V14.01,2013-02-15 16:55:00,
2013-02-15 10:58:00,54.9,39.0,30.28,NNE,25,9.0,13.0,55,0.00,,,0.00,VWS V14.01,2013-02-15 16:58:00,
2013-02-15 11:00:00,54.8,38.5,30.28,NE,49,12.0,13.0,54,0.00,,,0.00,VWS V14.01,2013-02-15 17:00:00,
2013-02-15 11:03:00,54.6,38.8,30.28,NNE,33,7.0,12.0,55,0.00,,,0.00,VWS V14.01,2013-02-15 17:03:00,
2013-02-15 11:05:00,54.7,38.9,30.27,NNE,21,11.0,12.0,55,0.00,,,0.00,VWS V14.01,2013-02-15 17:05:00,
2013-02-15 11:08:00,54.9,40.0,30.27,ENE,74,8.0,15.0,57,0.00,,,0.00,VWS V14.01,2013-02-15 17:08:00,
2013-02-15 11:10:00,55.1,39.7,30.27,NE,39,7.0,15.0,56,0.00,,,0.00,VWS V14.01,2013-02-15 17:10:00,
2013-02-15 11:13:00,55.6,39.2,30.28,NE,46,7.0,12.0,54,0.00,,,0.00,VWS V14.01,2013-02-15 17:13:00,
2013-02-15 11:15:00,55.7,39.3,30.28,NNE,18,6.0,12.0,54,0.00,,,0.00,VWS V14.01,2013-02-15 17:15:00,
2013-02-15 11:18:00,55.9,38.5,30.28,NE,43,10.0,14.0,52,0.00,,,0.00,VWS V14.01,2013-02-15 17:18:00,
2013-02-15 11:20:00,55.9,39.0,30.28,NE,46,11.0,14.0,53,0.00,,,0.00,VWS V14.01,2013-02-15 17:20:00,
2013-02-15 11:23:00,55.9,39.0,30.28,ENE,68,12.0,12.0,53,0.00,,,0.00,VWS V14.01,2013-02-15 17:23:00,
2013-02-15 11:25:00,55.9,39.0,30.28,NNE,25,7.0,14.0,53,0.00,,,0.00,VWS V14.01,2013-02-15 17:25:00,
2013-02-15 11:28:00,56.0,39.1,30.28,NE,46,9.0,12.0,53,0.00,,,0.00,VWS V14.01,2013-02-15 17:28:00,
2013-02-15 11:30:00,56.1,38.7,30.27,East,80,9.0,12.0,52,0.00,,,0.00,VWS V14.01,2013-02-15 17:30:00,
2013-02-15 11:33:00,56.2,39.8,30.27,North,352,10.0,14.0,54,0.00,,,0.00,VWS V14.01,2013-02-15 17:33:00,
2013-02-15 11:35:00,56.5,39.1,30.27,North,4,12.0,14.0,52,0.00,,,0.00,VWS V14.01,2013-02-15 17:35:00,
2013-02-15 11:38:00,56.7,39.3,30.27,NNE,13,8.0,14.0,52,0.00,,,0.00,VWS V14.01,2013-02-15 17:38:00,
2013-02-15 11:40:00,56.7,38.8,30.27,NNE,28,10.0,14.0,51,0.00,,,0.00,VWS V14.01,2013-02-15 17:40:00,
2013-02-15 11:43:00,56.9,39.5,30.27,NE,37,8.0,12.0,52,0.00,,,0.00,VWS V14.01,2013-02-15 17:43:00,
2013-02-15 11:45:00,56.9,39.0,30.27,NNE,21,10.0,13.0,51,0.00,,,0.00,VWS V14.01,2013-02-15 17:45:00,
2013-02-15 11:48:00,56.9,39.0,30.27,ENE,67,8.0,13.0,51,0.00,,,0.00,VWS V14.01,2013-02-15 17:48:00,
2013-02-15 11:50:00,56.9,38.5,30.27,NE,45,6.0,13.0,50,0.00,,,0.00,VWS V14.01,2013-02-15 17:50:00,
2013-02-15 11:53:00,56.8,38.4,30.27,North,11,10.0,17.0,50,0.00,,,0.00,VWS V14.01,2013-02-15 17:53:00,
2013-02-15 11:55:00,57.0,39.1,30.27,NW,318,10.0,17.0,51,0.00,,,0.00,VWS V14.01,2013-02-15 17:55:00,
2013-02-15 11:58:00,57.1,38.7,30.27,ENE,66,7.0,15.0,50,0.00,,,0.00,VWS V14.01,2013-02-15 17:58:00,
2013-02-15 12:00:00,57.2,39.2,30.27,ENE,61,6.0,15.0,51,0.00,,,0.00,VWS V14.01,2013-02-15 18:00:00,
2013-02-15 12:03:00,57.4,38.9,30.27,NE,52,5.0,13.0,50,0.00,,,0.00,VWS V14.01,2013-02-15 18:03:00,
2013-02-15 12:05:00,57.7,38.7,30.27,NE,45,10.0,14.0,49,0.00,,,0.00,VWS V14.01,2013-02-15 18:05:00,
2013-02-15 12:08:00,57.9,38.3,30.27,North,352,12.0,13.0,48,0.00,,,0.00,VWS V14.01,2013-02-15 18:08:00,
2013-02-15 12:10:00,57.8,38.3,30.27,NE,50,11.0,18.0,48,0.00,,,0.00,VWS V14.01,2013-02-15 18:10:00,
2013-02-15 12:13:00,57.7,38.7,30.27,NNE,24,6.0,14.0,49,0.00,,,0.00,VWS V14.01,2013-02-15 18:13:00,
2013-02-15 12:15:00,57.6,39.1,30.27,NNE,25,16.0,18.0,50,0.00,,,0.00,VWS V14.01,2013-02-15 18:15:00,
2013-02-15 12:18:00,57.4,38.4,30.27,NNE,33,14.0,16.0,49,0.00,,,0.00,VWS V14.01,2013-02-15 18:18:00,
2013-02-15 12:20:00,57.3,38.8,30.26,NNE,23,9.0,18.0,50,0.00,,,0.00,VWS V14.01,2013-02-15 18:20:00,
2013-02-15 12:23:00,57.5,39.0,30.27,NNE,28,15.0,17.0,50,0.00,,,0.00,VWS V14.01,2013-02-15 18:23:00,
2013-02-15 12:25:00,57.3,38.3,30.27,NE,48,12.0,17.0,49,0.00,,,0.00,VWS V14.01,2013-02-15 18:25:00,
2013-02-15 12:28:00,57.2,38.8,30.26,NE,46,13.0,19.0,50,0.00,,,0.00,VWS V14.01,2013-02-15 18:28:00,
2013-02-15 12:30:00,57.2,39.2,30.26,NNE,29,9.0,19.0,51,0.00,,,0.00,VWS V14.01,2013-02-15 18:30:00,
2013-02-15 12:33:00,57.2,38.8,30.26,NE,49,10.0,15.0,50,0.00,,,0.00,VWS V14.01,2013-02-15 18:33:00,
2013-02-15 12:35:00,57.2,38.8,30.26,ENE,68,8.0,15.0,50,0.00,,,0.00,VWS V14.01,2013-02-15 18:35:00,
2013-02-15 12:38:00,57.3,39.8,30.26,ENE,62,10.0,15.0,52,0.00,,,0.00,VWS V14.01,2013-02-15 18:38:00,
2013-02-15 12:40:00,57.5,39.0,30.26,NE,42,7.0,15.0,50,0.00,,,0.00,VWS V14.01,2013-02-15 18:40:00,
2013-02-15 12:43:00,57.3,39.3,30.26,NNE,16,9.0,14.0,51,0.00,,,0.00,VWS V14.01,2013-02-15 18:43:00,
2013-02-15 12:45:00,57.2,38.2,30.26,NNE,22,9.0,17.0,49,0.00,,,0.00,VWS V14.01,2013-02-15 18:45:00,
2013-02-15 12:48:00,57.1,39.2,30.26,NE,50,13.0,13.0,51,0.00,,,0.00,VWS V14.01,2013-02-15 18:48:00,
2013-02-15 12:50:00,57.4,38.9,30.26,NE,50,10.0,14.0,50,0.00,,,0.00,VWS V14.01,2013-02-15 18:50:00,
2013-02-15 12:53:00,57.2,38.2,30.26,North,360,13.0,18.0,49,0.00,,,0.00,VWS V14.01,2013-02-15 18:53:00,
2013-02-15 12:55:00,57.1,39.2,30.26,North,4,14.0,18.0,51,0.00,,,0.00,VWS V14.01,2013-02-15 18:55:00,
2013-02-15 12:58:00,57.1,38.7,30.26,NE,56,7.0,17.0,50,0.00,,,0.00,VWS V14.01,2013-02-15 18:58:00,
2013-02-15 13:00:00,57.1,38.1,30.26,NNE,19,10.0,17.0,49,0.00,,,0.00,VWS V14.01,2013-02-15 19:00:00,
2013-02-15 13:03:00,57.1,39.2,30.25,NNE,33,12.0,16.0,51,0.00,,,0.00,VWS V14.01,2013-02-15 19:03:00,
2013-02-15 13:05:00,57.0,39.1,30.25,NE,40,6.0,16.0,51,0.00,,,0.00,VWS V14.01,2013-02-15 19:05:00,
2013-02-15 13:08:00,57.3,39.3,30.25,NNW,338,13.0,17.0,51,0.00,,,0.00,VWS V14.01,2013-02-15 19:08:00,
2013-02-15 13:10:00,57.1,38.7,30.25,NNE,22,10.0,17.0,50,0.00,,,0.00,VWS V14.01,2013-02-15 19:10:00,
2013-02-15 13:13:00,57.0,39.6,30.25,ENE,61,11.0,15.0,52,0.00,,,0.00,VWS V14.01,2013-02-15 19:13:00,
2013-02-15 13:15:00,56.8,38.4,30.25,North,7,11.0,15.0,50,0.00,,,0.00,VWS V14.01,2013-02-15 19:15:00,
2013-02-15 13:18:00,57.0,39.6,30.25,NNE,21,10.0,13.0,52,0.00,,,0.00,VWS V14.01,2013-02-15 19:18:00,
2013-02-15 13:20:00,57.0,38.6,30.25,NNE,28,9.0,13.0,50,0.00,,,0.00,VWS V14.01,2013-02-15 19:20:00,
2013-02-15 13:23:00,57.2,39.2,30.25,NNE,33,10.0,12.0,51,0.00,,,0.00,VWS V14.01,2013-02-15 19:23:00,
2013-02-15 13:25:00,57.2,38.2,30.25,ENE,66,8.0,14.0,49,0.00,,,0.00,VWS V14.01,2013-02-15 19:25:00,
2013-02-15 13:28:00,57.2,38.8,30.25,NE,43,10.0,16.0,50,0.00,,,0.00,VWS V14.01,2013-02-15 19:28:00,
2013-02-15 13:30:00,57.2,38.2,30.25,NE,39,9.0,16.0,49,0.00,,,0.00,VWS V14.01,2013-02-15 19:30:00,
2013-02-15 13:33:00,57.0,38.6,30.24,NE,56,8.0,12.0,50,0.00,,,0.00,VWS V14.01,2013-02-15 19:33:00,
2013-02-15 13:35:00,57.0,39.1,30.24,NE,42,12.0,15.0,51,0.00,,,0.00,VWS V14.01,2013-02-15 19:35:00,
2013-02-15 13:38:00,56.8,38.9,30.24,NE,36,8.0,12.0,51,0.00,,,0.00,VWS V14.01,2013-02-15 19:38:00,
2013-02-15 13:40:00,56.8,38.9,30.24,NE,43,9.0,14.0,51,0.00,,,0.00,VWS V14.01,2013-02-15 19:40:00,
2013-02-15 13:43:00,56.8,38.9,30.24,NE,39,8.0,11.0,51,0.00,,,0.00,VWS V14.01,2013-02-15 19:43:00,
2013-02-15 13:45:00,56.7,38.8,30.24,NNE,18,12.0,15.0,51,0.00,,,0.00,VWS V14.01,2013-02-15 19:45:00,
2013-02-15 13:48:00,56.7,38.8,30.24,NNE,16,9.0,16.0,51,0.00,,,0.00,VWS V14.01,2013-02-15 19:48:00,
2013-02-15 13:50:00,56.7,38.8,30.23,NNE,23,7.0,16.0,51,0.00,,,0.00,VWS V14.01,2013-02-15 19:50:00,
2013-02-15 13:53:00,56.6,39.2,30.23,NE,35,11.0,11.0,52,0.00,,,0.00,VWS V14.01,2013-02-15 19:53:00,
2013-02-15 13:55:00,56.7,39.3,30.23,NNE,28,10.0,11.0,52,0.00,,,0.00,VWS V14.01,2013-02-15 19:55:00,
2013-02-15 13:58:00,56.8,39.4,30.23,NNE,18,9.0,11.0,52,0.00,,,0.00,VWS V14.01,2013-02-15 19:58:00,
2013-02-15 14:00:00,56.9,40.0,30.23,NE,52,10.0,11.0,53,0.00,,,0.00,VWS V14.01,2013-02-15 20:00:00,
2013-02-15 14:03:00,56.8,39.4,30.23,North,352,15.0,16.0,52,0.00,,,0.00,VWS V14.01,2013-02-15 20:03:00,
2013-02-15 14:05:00,56.8,39.4,30.23,NNE,21,6.0,17.0,52,0.00,,,0.00,VWS V14.01,2013-02-15 20:05:00,
2013-02-15 14:08:00,56.6,39.2,30.23,NNE,12,9.0,11.0,52,0.00,,,0.00,VWS V14.01,2013-02-15 20:08:00,
2013-02-15 14:10:00,56.5,39.6,30.23,North,1,12.0,13.0,53,0.00,,,0.00,VWS V14.01,2013-02-15 20:10:00,
2013-02-15 14:13:00,56.4,39.0,30.23,NNE,18,14.0,16.0,52,0.00,,,0.00,VWS V14.01,2013-02-15 20:13:00,
2013-02-15 14:15:00,56.2,38.8,30.23,NNE,18,13.0,16.0,52,0.00,,,0.00,VWS V14.01,2013-02-15 20:15:00,
2013-02-15 14:18:00,56.0,39.1,30.23,North,9,14.0,21.0,53,0.00,,,0.00,VWS V14.01,2013-02-15 20:18:00,
2013-02-15 14:20:00,55.7,39.3,30.23,NNE,21,8.0,21.0,54,0.00,,,0.00,VWS V14.01,2013-02-15 20:20:00,
2013-02-15 14:23:00,55.6,39.7,30.23,NNE,24,20.0,20.0,55,0.00,,,0.00,VWS V14.01,2013-02-15 20:23:00,
2013-02-15 14:25:00,55.4,39.5,30.23,North,9,12.0,20.0,55,0.00,,,0.00,VWS V14.01,2013-02-15 20:25:00,
2013-02-15 14:28:00,55.4,39.5,30.23,North,359,13.0,19.0,55,0.00,,,0.00,VWS V14.01,2013-02-15 20:28:00,
2013-02-15 14:30:00,55.4,39.5,30.23,North,351,12.0,20.0,55,0.00,,,0.00,VWS V14.01,2013-02-15 20:30:00,
2013-02-15 14:33:00,55.2,38.9,30.24,NNE,16,17.0,17.0,54,0.00,,,0.00,VWS V14.01,2013-02-15 20:33:00,
2013-02-15 14:35:00,54.9,39.0,30.23,NNE,18,13.0,17.0,55,0.00,,,0.00,VWS V14.01,2013-02-15 20:35:00,
2013-02-15 14:38:00,54.8,39.4,30.23,North,8,14.0,16.0,56,0.00,,,0.00,VWS V14.01,2013-02-15 20:38:00,
2013-02-15 14:40:00,54.8,39.4,30.23,NNE,16,8.0,16.0,56,0.00,,,0.00,VWS V14.01,2013-02-15 20:40:00,
2013-02-15 14:43:00,55.0,39.6,30.23,NNE,14,6.0,17.0,56,0.00,,,0.00,VWS V14.01,2013-02-15 20:43:00,
2013-02-15 14:45:00,54.9,39.0,30.23,NNE,25,13.0,17.0,55,0.00,,,0.00,VWS V14.01,2013-02-15 20:45:00,
2013-02-15 14:48:00,54.7,38.9,30.23,North,352,11.0,15.0,55,0.00,,,0.00,VWS V14.01,2013-02-15 20:48:00,
2013-02-15 14:50:00,54.7,39.3,30.24,North,5,7.0,16.0,56,0.00,,,0.00,VWS V14.01,2013-02-15 20:50:00,
2013-02-15 14:53:00,54.8,39.4,30.24,NNE,21,15.0,15.0,56,0.00,,,0.00,VWS V14.01,2013-02-15 20:53:00,
2013-02-15 14:55:00,54.6,38.8,30.23,NNE,21,9.0,16.0,55,0.00,,,0.00,VWS V14.01,2013-02-15 20:55:00,
2013-02-15 14:57:00,54.5,39.1,30.23,NNE,14,9.0,13.0,56,0.00,,,0.00,VWS V14.01,2013-02-15 20:57:00,
2013-02-15 15:00:00,54.5,39.1,30.24,North,1,14.0,17.0,56,0.00,,,0.00,VWS V14.01,2013-02-15 21:00:00,
2013-02-15 15:02:00,54.4,38.6,30.24,NNE,15,13.0,15.0,55,0.00,,,0.00,VWS V14.01,2013-02-15 21:02:00,
2013-02-15 15:05:00,54.3,39.0,30.24,NNE,18,8.0,15.0,56,0.00,,,0.00,VWS V14.01,2013-02-15 21:05:00,
2013-02-15 15:07:00,54.3,39.0,30.24,NNE,18,9.0,14.0,56,0.00,,,0.00,VWS V14.01,2013-02-15 21:07:00,
2013-02-15 15:10:00,54.2,38.9,30.24,NNE,22,10.0,15.0,56,0.00,,,0.00,VWS V14.01,2013-02-15 21:10:00,
2013-02-15 15:12:00,54.0,38.7,30.24,North,7,9.0,15.0,56,0.00,,,0.00,VWS V14.01,2013-02-15 21:12:00,
2013-02-15 15:15:00,53.9,38.1,30.24,North,5,15.0,17.0,55,0.00,,,0.00,VWS V14.01,2013-02-15 21:15:00,
2013-02-15 15:17:00,53.8,38.0,30.24,North,10,15.0,16.0,55,0.00,,,0.00,VWS V14.01,2013-02-15 21:17:00,
2013-02-15 15:20:00,53.8,38.5,30.24,NE,34,12.0,16.0,56,0.00,,,0.00,VWS V14.01,2013-02-15 21:20:00,
2013-02-15 15:22:00,53.7,37.9,30.24,NNE,12,11.0,18.0,55,0.00,,,0.00,VWS V14.01,2013-02-15 21:22:00,
2013-02-15 15:25:00,53.7,37.9,30.24,NNE,14,12.0,18.0,55,0.00,,,0.00,VWS V14.01,2013-02-15 21:25:00,
2013-02-15 15:27:00,53.6,37.8,30.23,NNE,19,11.0,16.0,55,0.00,,,0.00,VWS V14.01,2013-02-15 21:27:00,
2013-02-15 15:30:00,53.6,37.8,30.24,NNW,343,12.0,16.0,55,0.00,,,0.00,VWS V14.01,2013-02-15 21:30:00,
2013-02-15 15:32:00,53.6,37.8,30.24,NNE,18,11.0,15.0,55,0.00,,,0.00,VWS V14.01,2013-02-15 21:32:00,
2013-02-15 15:35:00,53.7,37.9,30.24,North,9,12.0,15.0,55,0.00,,,0.00,VWS V14.01,2013-02-15 21:35:00,
2013-02-15 15:37:00,53.6,37.8,30.24,North,4,14.0,16.0,55,0.00,,,0.00,VWS V14.01,2013-02-15 21:37:00,
2013-02-15 15:40:00,53.6,37.8,30.24,North,11,8.0,16.0,55,0.00,,,0.00,VWS V14.01,2013-02-15 21:40:00,
2013-02-15 15:42:00,53.6,37.8,30.24,NNW,341,6.0,13.0,55,0.00,,,0.00,VWS V14.01,2013-02-15 21:42:00,
2013-02-15 15:45:00,53.6,37.8,30.24,North,360,14.0,14.0,55,0.00,,,0.00,VWS V14.01,2013-02-15 21:45:00,
2013-02-15 15:47:00,53.6,37.8,30.24,NNE,20,12.0,16.0,55,0.00,,,0.00,VWS V14.01,2013-02-15 21:47:00,
2013-02-15 15:50:00,53.6,37.8,30.24,NNE,22,13.0,16.0,55,0.00,,,0.00,VWS V14.01,2013-02-15 21:50:00,
2013-02-15 15:52:00,53.5,37.8,30.24,North,360,9.0,15.0,55,0.00,,,0.00,VWS V14.01,2013-02-15 21:52:00,
2013-02-15 15:55:00,53.4,37.7,30.24,NNE,12,13.0,17.0,55,0.00,,,0.00,VWS V14.01,2013-02-15 21:55:00,
2013-02-15 15:57:00,53.3,37.6,30.24,NNE,16,11.0,13.0,55,0.00,,,0.00,VWS V14.01,2013-02-15 21:57:00,
2013-02-15 16:00:00,53.3,37.6,30.24,NNE,28,8.0,13.0,55,0.00,,,0.00,VWS V14.01,2013-02-15 22:00:00,
2013-02-15 16:02:00,53.2,37.5,30.25,North,1,12.0,20.0,55,0.00,,,0.00,VWS V14.01,2013-02-15 22:02:00,
2013-02-15 16:05:00,53.1,37.4,30.24,North,0,11.0,20.0,55,0.00,,,0.00,VWS V14.01,2013-02-15 22:05:00,
2013-02-15 16:07:00,53.0,37.3,30.24,NNE,16,8.0,13.0,55,0.00,,,0.00,VWS V14.01,2013-02-15 22:07:00,
2013-02-15 16:10:00,52.9,37.2,30.24,NNE,22,9.0,13.0,55,0.00,,,0.00,VWS V14.01,2013-02-15 22:10:00,
2013-02-15 16:12:00,52.9,37.2,30.25,NNE,22,14.0,15.0,55,0.00,,,0.00,VWS V14.01,2013-02-15 22:12:00,
2013-02-15 16:15:00,52.8,37.1,30.25,NNE,22,11.0,15.0,55,0.00,,,0.00,VWS V14.01,2013-02-15 22:15:00,
2013-02-15 16:17:00,52.8,37.1,30.25,NE,40,11.0,14.0,55,0.00,,,0.00,VWS V14.01,2013-02-15 22:17:00,
2013-02-15 16:20:00,52.7,37.0,30.25,NNE,22,10.0,17.0,55,0.00,,,0.00,VWS V14.01,2013-02-15 22:20:00,
2013-02-15 16:22:00,52.7,37.0,30.25,NNE,33,9.0,12.0,55,0.00,,,0.00,VWS V14.01,2013-02-15 22:22:00,
2013-02-15 16:25:00,52.7,37.0,30.25,NNE,22,9.0,12.0,55,0.00,,,0.00,VWS V14.01,2013-02-15 22:25:00,
2013-02-15 16:27:00,52.6,37.4,30.25,North,5,7.0,13.0,56,0.00,,,0.00,VWS V14.01,2013-02-15 22:27:00,
2013-02-15 16:30:00,52.6,37.4,30.25,NNE,22,9.0,14.0,56,0.00,,,0.00,VWS V14.01,2013-02-15 22:30:00,
2013-02-15 16:32:00,52.6,37.4,30.25,NNE,21,6.0,13.0,56,0.00,,,0.00,VWS V14.01,2013-02-15 22:32:00,
2013-02-15 16:35:00,52.6,37.4,30.25,NNE,22,9.0,14.0,56,0.00,,,0.00,VWS V14.01,2013-02-15 22:35:00,
2013-02-15 16:37:00,52.6,37.8,30.25,NNE,30,11.0,12.0,57,0.00,,,0.00,VWS V14.01,2013-02-15 22:37:00,
2013-02-15 16:40:00,52.5,37.3,30.25,NNE,22,9.0,13.0,56,0.00,,,0.00,VWS V14.01,2013-02-15 22:40:00,
2013-02-15 16:42:00,52.4,37.2,30.25,North,9,11.0,17.0,56,0.00,,,0.00,VWS V14.01,2013-02-15 22:42:00,
2013-02-15 16:45:00,52.4,37.6,30.25,NNE,22,11.0,17.0,57,0.00,,,0.00,VWS V14.01,2013-02-15 22:45:00,
2013-02-15 16:47:00,52.4,37.6,30.25,NNE,16,12.0,13.0,57,0.00,,,0.00,VWS V14.01,2013-02-15 22:47:00,
2013-02-15 16:50:00,52.3,37.5,30.25,NNE,22,10.0,14.0,57,0.00,,,0.00,VWS V14.01,2013-02-15 22:50:00,
2013-02-15 16:52:00,52.2,37.4,30.26,North,11,10.0,15.0,57,0.00,,,0.00,VWS V14.01,2013-02-15 22:52:00,
2013-02-15 16:55:00,52.2,37.4,30.26,NNE,22,10.0,15.0,57,0.00,,,0.00,VWS V14.01,2013-02-15 22:55:00,
2013-02-15 16:57:00,52.1,37.3,30.26,North,5,13.0,16.0,57,0.00,,,0.00,VWS V14.01,2013-02-15 22:57:00,
2013-02-15 17:00:00,52.0,37.2,30.26,NNE,22,10.0,16.0,57,0.00,,,0.00,VWS V14.01,2013-02-15 23:00:00,
2013-02-15 17:02:00,52.0,37.2,30.26,North,2,6.0,13.0,57,0.00,,,0.00,VWS V14.01,2013-02-15 23:02:00,
2013-02-15 17:05:00,52.0,37.2,30.26,NNE,22,9.0,14.0,57,0.00,,,0.00,VWS V14.01,2013-02-15 23:05:00,
2013-02-15 17:07:00,51.9,37.2,30.26,North,7,13.0,14.0,57,0.00,,,0.00,VWS V14.01,2013-02-15 23:07:00,
2013-02-15 17:10:00,51.9,37.2,30.26,North,0,10.0,15.0,57,0.00,,,0.00,VWS V14.01,2013-02-15 23:10:00,
2013-02-15 17:12:00,51.8,37.1,30.26,NNE,23,8.0,14.0,57,0.00,,,0.00,VWS V14.01,2013-02-15 23:12:00,
2013-02-15 17:15:00,51.7,37.0,30.26,NNE,22,10.0,16.0,57,0.00,,,0.00,VWS V14.01,2013-02-15 23:15:00,
2013-02-15 17:17:00,51.7,36.5,30.26,NNE,15,11.0,16.0,56,0.00,,,0.00,VWS V14.01,2013-02-15 23:17:00,
2013-02-15 17:20:00,51.6,36.4,30.26,North,0,12.0,19.0,56,0.00,,,0.00,VWS V14.01,2013-02-15 23:20:00,
2013-02-15 17:22:00,51.6,36.4,30.26,NNE,15,8.0,18.0,56,0.00,,,0.00,VWS V14.01,2013-02-15 23:22:00,
2013-02-15 17:25:00,51.6,36.9,30.27,North,0,9.0,16.0,57,0.00,,,0.00,VWS V14.01,2013-02-15 23:25:00,
2013-02-15 17:27:00,51.6,36.9,30.27,NNE,18,6.0,16.0,57,0.00,,,0.00,VWS V14.01,2013-02-15 23:27:00,
2013-02-15 17:30:00,51.5,36.8,30.27,North,0,10.0,16.0,57,0.00,,,0.00,VWS V14.01,2013-02-15 23:30:00,
2013-02-15 17:32:00,51.4,36.7,30.27,North,8,10.0,15.0,57,0.00,,,0.00,VWS V14.01,2013-02-15 23:32:00,
2013-02-15 17:35:00,51.4,36.7,30.27,North,0,11.0,15.0,57,0.00,,,0.00,VWS V14.01,2013-02-15 23:35:00,
2013-02-15 17:37:00,51.2,36.5,30.27,NNE,13,11.0,17.0,57,0.00,,,0.00,VWS V14.01,2013-02-15 23:37:00,
2013-02-15 17:40:00,51.1,36.4,30.28,North,0,12.0,17.0,57,0.00,,,0.00,VWS V14.01,2013-02-15 23:40:00,
2013-02-15 17:42:00,51.0,36.3,30.28,North,357,8.0,16.0,57,0.00,,,0.00,VWS V14.01,2013-02-15 23:42:00,
2013-02-15 17:45:00,50.9,36.2,30.28,North,0,12.0,17.0,57,0.00,,,0.00,VWS V14.01,2013-02-15 23:45:00,
2013-02-15 17:47:00,50.8,36.1,30.28,NNE,21,8.0,16.0,57,0.00,,,0.00,VWS V14.01,2013-02-15 23:47:00,
2013-02-15 17:50:00,50.7,36.5,30.28,North,0,10.0,16.0,58,0.00,,,0.00,VWS V14.01,2013-02-15 23:50:00,
2013-02-15 17:52:00,50.6,36.4,30.28,North,5,9.0,14.0,58,0.00,,,0.00,VWS V14.01,2013-02-15 23:52:00,
2013-02-15 17:55:00,50.5,36.3,30.28,North,0,7.0,14.0,58,0.00,,,0.00,VWS V14.01,2013-02-15 23:55:00,
2013-02-15 17:57:00,50.5,36.3,30.28,NNE,29,14.0,14.0,58,0.00,,,0.00,VWS V14.01,2013-02-15 23:57:00,
2013-02-15 18:00:00,50.4,36.2,30.28,NNE,22,10.0,16.0,58,0.00,,,0.00,VWS V14.01,2013-02-16 00:00:00,
2013-02-15 18:02:00,50.3,36.1,30.28,North,355,15.0,15.0,58,0.00,,,0.00,VWS V14.01,2013-02-16 00:02:00,
2013-02-15 18:05:00,50.1,36.3,30.29,North,0,11.0,16.0,59,0.00,,,0.00,VWS V14.01,2013-02-16 00:05:00,
2013-02-15 18:07:00,50.0,36.7,30.29,North,1,5.0,9.0,60,0.00,,,0.00,VWS V14.01,2013-02-16 00:07:00,
2013-02-15 18:10:00,49.9,36.2,30.29,North,0,7.0,14.0,59,0.00,,,0.00,VWS V14.01,2013-02-16 00:10:00,
2013-02-15 18:12:00,49.8,36.1,30.29,North,10,11.0,16.0,59,0.00,,,0.00,VWS V14.01,2013-02-16 00:12:00,
2013-02-15 18:15:00,49.7,35.5,30.29,North,0,11.0,16.0,58,0.00,,,0.00,VWS V14.01,2013-02-16 00:15:00,
2013-02-15 18:17:00,49.7,35.5,30.29,NNW,343,10.0,11.0,58,0.00,,,0.00,VWS V14.01,2013-02-16 00:17:00,
2013-02-15 18:20:00,49.6,35.5,30.30,North,0,9.0,18.0,58,0.00,,,0.00,VWS V14.01,2013-02-16 00:20:00,
2013-02-15 18:22:00,49.5,34.9,30.30,NNW,348,6.0,17.0,57,0.00,,,0.00,VWS V14.01,2013-02-16 00:22:00,
2013-02-15 18:25:00,49.5,35.3,30.30,North,0,10.0,18.0,58,0.00,,,0.00,VWS V14.01,2013-02-16 00:25:00,
2013-02-15 18:27:00,49.4,34.8,30.30,North,5,10.0,14.0,57,0.00,,,0.00,VWS V14.01,2013-02-16 00:27:00,
2013-02-15 18:30:00,49.4,34.8,30.30,North,0,10.0,15.0,57,0.00,,,0.00,VWS V14.01,2013-02-16 00:30:00,
2013-02-15 18:32:00,49.3,34.7,30.31,North,11,10.0,12.0,57,0.00,,,0.00,VWS V14.01,2013-02-16 00:32:00,
2013-02-15 18:35:00,49.3,34.7,30.31,North,0,9.0,13.0,57,0.00,,,0.00,VWS V14.01,2013-02-16 00:35:00,
2013-02-15 18:37:00,49.3,34.3,30.31,North,9,13.0,16.0,56,0.00,,,0.00,VWS V14.01,2013-02-16 00:37:00,
2013-02-15 18:40:00,49.2,33.7,30.31,North,0,11.0,17.0,55,0.00,,,0.00,VWS V14.01,2013-02-16 00:40:00,
2013-02-15 18:42:00,49.2,33.7,30.31,North,5,12.0,14.0,55,0.00,,,0.00,VWS V14.01,2013-02-16 00:42:00,
2013-02-15 18:45:00,49.2,33.7,30.31,NNE,22,10.0,15.0,55,0.00,,,0.00,VWS V14.01,2013-02-16 00:45:00,
2013-02-15 18:47:00,49.1,33.2,30.31,North,3,11.0,13.0,54,0.00,,,0.00,VWS V14.01,2013-02-16 00:47:00,
2013-02-15 18:50:00,49.1,33.2,30.31,North,0,9.0,14.0,54,0.00,,,0.00,VWS V14.01,2013-02-16 00:50:00,
2013-02-15 18:52:00,49.0,32.6,30.32,North,358,14.0,14.0,53,0.00,,,0.00,VWS V14.01,2013-02-16 00:52:00,
2013-02-15 18:55:00,48.9,32.5,30.32,North,0,9.0,14.0,53,0.00,,,0.00,VWS V14.01,2013-02-16 00:55:00,
2013-02-15 18:57:00,48.9,32.1,30.32,North,5,8.0,14.0,52,0.00,,,0.00,VWS V14.01,2013-02-16 00:57:00,
2013-02-15 19:00:00,48.8,31.5,30.32,North,0,9.0,14.0,51,0.00,,,0.00,VWS V14.01,2013-02-16 01:00:00,
2013-02-15 19:02:00,48.7,31.9,30.32,North,357,8.0,12.0,52,0.00,,,0.00,VWS V14.01,2013-02-16 01:02:00,
2013-02-15 19:05:00,48.5,31.7,30.32,North,0,8.0,12.0,52,0.00,,,0.00,VWS V14.01,2013-02-16 01:05:00,
2013-02-15 19:07:00,48.5,31.2,30.33,NNE,18,10.0,12.0,51,0.00,,,0.00,VWS V14.01,2013-02-16 01:07:00,
2013-02-15 19:10:00,48.4,31.6,30.33,North,0,7.0,12.0,52,0.00,,,0.00,VWS V14.01,2013-02-16 01:10:00,
2013-02-15 19:12:00,48.3,31.5,30.33,North,360,5.0,8.0,52,0.00,,,0.00,VWS V14.01,2013-02-16 01:12:00,
2013-02-15 19:15:00,48.1,31.3,30.33,North,0,5.0,8.0,52,0.00,,,0.00,VWS V14.01,2013-02-16 01:15:00,
2013-02-15 19:17:00,48.0,31.2,30.33,North,358,6.0,8.0,52,0.00,,,0.00,VWS V14.01,2013-02-16 01:17:00,
2013-02-15 19:20:00,47.9,30.2,30.33,North,0,8.0,17.0,50,0.00,,,0.00,VWS V14.01,2013-02-16 01:20:00,
2013-02-15 19:22:00,47.9,30.2,30.34,North,4,8.0,15.0,50,0.00,,,0.00,VWS V14.01,2013-02-16 01:22:00,
2013-02-15 19:25:00,47.8,29.6,30.34,North,0,11.0,17.0,49,0.00,,,0.00,VWS V14.01,2013-02-16 01:25:00,
2013-02-15 19:27:00,47.8,29.1,30.34,North,3,16.0,17.0,48,0.00,,,0.00,VWS V14.01,2013-02-16 01:27:00,
2013-02-15 19:30:00,47.6,27.9,30.34,North,0,13.0,19.0,46,0.00,,,0.00,VWS V14.01,2013-02-16 01:30:00,
2013-02-15 19:32:00,47.5,27.8,30.34,North,5,12.0,17.0,46,0.00,,,0.00,VWS V14.01,2013-02-16 01:32:00,
2013-02-15 19:35:00,47.4,27.7,30.34,North,0,11.0,17.0,46,0.00,,,0.00,VWS V14.01,2013-02-16 01:35:00,
2013-02-15 19:37:00,47.3,27.6,30.34,North,360,9.0,11.0,46,0.00,,,0.00,VWS V14.01,2013-02-16 01:37:00,
2013-02-15 19:40:00,47.2,27.0,30.35,North,0,8.0,11.0,45,0.00,,,0.00,VWS V14.01,2013-02-16 01:40:00,
2013-02-15 19:42:00,47.1,26.3,30.35,North,350,10.0,12.0,44,0.00,,,0.00,VWS V14.01,2013-02-16 01:42:00,
2013-02-15 19:45:00,47.0,26.8,30.35,North,0,7.0,12.0,45,0.00,,,0.00,VWS V14.01,2013-02-16 01:45:00,
2013-02-15 19:47:00,46.9,26.1,30.35,North,352,8.0,10.0,44,0.00,,,0.00,VWS V14.01,2013-02-16 01:47:00,
2013-02-15 19:50:00,46.7,26.0,30.36,North,0,7.0,14.0,44,0.00,,,0.00,VWS V14.01,2013-02-16 01:50:00,
2013-02-15 19:52:00,46.7,25.4,30.36,NNE,19,3.0,9.0,43,0.00,,,0.00,VWS V14.01,2013-02-16 01:52:00,
2013-02-15 19:55:00,46.6,24.2,30.36,North,0,7.0,14.0,41,0.00,,,0.00,VWS V14.01,2013-02-16 01:55:00,
2013-02-15 19:57:00,46.6,24.2,30.36,North,355,7.0,14.0,41,0.00,,,0.00,VWS V14.01,2013-02-16 01:57:00,
2013-02-15 20:00:00,46.5,24.1,30.36,North,0,6.0,14.0,41,0.00,,,0.00,VWS V14.01,2013-02-16 02:00:00,
2013-02-15 20:02:00,46.4,22.8,30.36,North,358,7.0,11.0,39,0.00,,,0.00,VWS V14.01,2013-02-16 02:02:00,
2013-02-15 20:05:00,46.4,22.2,30.36,North,0,7.0,11.0,38,0.00,,,0.00,VWS V14.01,2013-02-16 02:05:00,
2013-02-15 20:07:00,46.3,22.1,30.36,NNW,346,9.0,10.0,38,0.00,,,0.00,VWS V14.01,2013-02-16 02:07:00,
2013-02-15 20:10:00,46.3,22.1,30.36,North,0,6.0,11.0,38,0.00,,,0.00,VWS V14.01,2013-02-16 02:10:00,
2013-02-15 20:12:00,46.2,22.0,30.36,North,2,6.0,8.0,38,0.00,,,0.00,VWS V14.01,2013-02-16 02:12:00,
2013-02-15 20:15:00,46.2,22.6,30.37,North,0,6.0,11.0,39,0.00,,,0.00,VWS V14.01,2013-02-16 02:15:00,
2013-02-15 20:17:00,46.2,22.6,30.37,North,350,5.0,10.0,39,0.00,,,0.00,VWS V14.01,2013-02-16 02:17:00,
2013-02-15 20:20:00,46.1,22.5,30.37,North,0,5.0,11.0,39,0.00,,,0.00,VWS V14.01,2013-02-16 02:20:00,
2013-02-15 20:22:00,46.0,22.5,30.37,North,5,5.0,9.0,39,0.00,,,0.00,VWS V14.01,2013-02-16 02:22:00,
2013-02-15 20:25:00,46.0,21.8,30.37,North,0,5.0,9.0,38,0.00,,,0.00,VWS V14.01,2013-02-16 02:25:00,
2013-02-15 20:27:00,46.0,21.8,30.37,North,358,5.0,9.0,38,0.00,,,0.00,VWS V14.01,2013-02-16 02:27:00,
2013-02-15 20:30:00,45.9,22.4,30.37,North,0,6.0,9.0,39,0.00,,,0.00,VWS V14.01,2013-02-16 02:30:00,
2013-02-15 20:32:00,45.8,22.9,30.38,NW,323,3.0,7.0,40,0.00,,,0.00,VWS V14.01,2013-02-16 02:32:00,
2013-02-15 20:35:00,45.7,22.8,30.38,NNW,338,4.0,7.0,40,0.00,,,0.00,VWS V14.01,2013-02-16 02:35:00,
2013-02-15 20:37:00,45.6,22.7,30.38,NNW,341,4.0,6.0,40,0.00,,,0.00,VWS V14.01,2013-02-16 02:37:00,
2013-02-15 20:40:00,45.5,23.2,30.38,NNW,338,3.0,6.0,41,0.00,,,0.00,VWS V14.01,2013-02-16 02:40:00,
2013-02-15 20:42:00,45.4,23.1,30.38,NNW,343,3.0,4.0,41,0.00,,,0.00,VWS V14.01,2013-02-16 02:42:00,
2013-02-15 20:45:00,45.3,23.0,30.38,NNW,338,4.0,6.0,41,0.00,,,0.00,VWS V14.01,2013-02-16 02:45:00,
2013-02-15 20:47:00,45.3,23.6,30.38,NNW,333,3.0,6.0,42,0.00,,,0.00,VWS V14.01,2013-02-16 02:47:00,
2013-02-15 20:50:00,45.1,23.4,30.38,NNW,338,3.0,6.0,42,0.00,,,0.00,VWS V14.01,2013-02-16 02:50:00,
2013-02-15 20:52:00,45.1,23.4,30.38,NNW,329,3.0,6.0,42,0.00,,,0.00,VWS V14.01,2013-02-16 02:52:00,
2013-02-15 20:55:00,44.9,23.8,30.39,NNW,338,3.0,6.0,43,0.00,,,0.00,VWS V14.01,2013-02-16 02:55:00,
2013-02-15 20:57:00,44.8,24.2,30.39,NNW,331,4.0,4.0,44,0.00,,,0.00,VWS V14.01,2013-02-16 02:57:00,
2013-02-15 21:00:00,44.7,24.1,30.39,NNW,338,3.0,5.0,44,0.00,,,0.00,VWS V14.01,2013-02-16 03:00:00,
2013-02-15 21:02:00,44.6,24.0,30.39,NW,322,3.0,4.0,44,0.00,,,0.00,VWS V14.01,2013-02-16 03:02:00,
2013-02-15 21:05:00,44.5,24.0,30.39,NNW,338,3.0,4.0,44,0.00,,,0.00,VWS V14.01,2013-02-16 03:05:00,
2013-02-15 21:07:00,44.4,23.9,30.39,NNW,343,2.0,3.0,44,0.00,,,0.00,VWS V14.01,2013-02-16 03:07:00,
2013-02-15 21:10:00,44.3,24.3,30.39,NNW,338,2.0,3.0,45,0.00,,,0.00,VWS V14.01,2013-02-16 03:10:00,
2013-02-15 21:12:00,44.2,24.2,30.39,NNW,331,1.0,2.0,45,0.00,,,0.00,VWS V14.01,2013-02-16 03:12:00,
2013-02-15 21:15:00,44.0,24.0,30.40,NNW,338,1.0,2.0,45,0.00,,,0.00,VWS V14.01,2013-02-16 03:15:00,
2013-02-15 21:17:00,43.9,24.0,30.40,NNW,332,1.0,1.0,45,0.00,,,0.00,VWS V14.01,2013-02-16 03:17:00,
2013-02-15 21:20:00,43.7,23.8,30.40,NNW,338,0.0,1.0,45,0.00,,,0.00,VWS V14.01,2013-02-16 03:20:00,
2013-02-15 21:22:00,43.6,24.2,30.40,NNW,332,0.0,1.0,46,0.00,,,0.00,VWS V14.01,2013-02-16 03:22:00,
2013-02-15 21:25:00,43.3,24.4,30.40,NNW,338,0.0,1.0,47,0.00,,,0.00,VWS V14.01,2013-02-16 03:25:00,
2013-02-15 21:27:00,43.0,24.7,30.40,NNW,331,0.0,1.0,48,0.00,,,0.00,VWS V14.01,2013-02-16 03:27:00,
2013-02-15 21:30:00,42.5,24.7,30.40,NNW,338,0.0,1.0,49,0.00,,,0.00,VWS V14.01,2013-02-16 03:30:00,
2013-02-15 21:32:00,42.1,24.8,30.40,NNW,332,0.0,1.0,50,0.00,,,0.00,VWS V14.01,2013-02-16 03:32:00,
2013-02-15 21:35:00,41.6,24.4,30.40,NNW,338,0.0,1.0,50,0.00,,,0.00,VWS V14.01,2013-02-16 03:35:00,
2013-02-15 21:37:00,41.5,24.7,30.40,NNW,332,0.0,1.0,51,0.00,,,0.00,VWS V14.01,2013-02-16 03:37:00,
2013-02-15 21:40:00,41.0,26.1,30.40,NNW,338,1.0,2.0,55,0.00,,,0.00,VWS V14.01,2013-02-16 03:40:00,
2013-02-15 21:42:00,40.8,25.9,30.40,NNW,332,1.0,2.0,55,0.00,,,0.00,VWS V14.01,2013-02-16 03:42:00,
2013-02-15 21:45:00,40.6,25.3,30.41,NNW,338,1.0,2.0,54,0.00,,,0.00,VWS V14.01,2013-02-16 03:45:00,
2013-02-15 21:47:00,40.6,25.3,30.41,NNW,332,1.0,1.0,54,0.00,,,0.00,VWS V14.01,2013-02-16 03:47:00,
2013-02-15 21:50:00,40.5,25.2,30.40,NNW,338,1.0,2.0,54,0.00,,,0.00,VWS V14.01,2013-02-16 03:50:00,
2013-02-15 21:52:00,40.4,25.1,30.40,NNW,331,1.0,2.0,54,0.00,,,0.00,VWS V14.01,2013-02-16 03:52:00,
2013-02-15 21:55:00,40.3,25.0,30.40,NNW,338,1.0,2.0,54,0.00,,,0.00,VWS V14.01,2013-02-16 03:55:00,
2013-02-15 21:57:00,40.3,25.0,30.40,NNW,332,1.0,2.0,54,0.00,,,0.00,VWS V14.01,2013-02-16 03:57:00,
2013-02-15 22:00:00,40.3,25.0,30.41,NNW,338,1.0,2.0,54,0.00,,,0.00,VWS V14.01,2013-02-16 04:00:00,
2013-02-15 22:02:00,40.3,25.0,30.41,NNW,331,1.0,2.0,54,0.00,,,0.00,VWS V14.01,2013-02-16 04:02:00,
2013-02-15 22:05:00,40.4,25.1,30.41,NNW,338,0.0,2.0,54,0.00,,,0.00,VWS V14.01,2013-02-16 04:05:00,
2013-02-15 22:07:00,40.4,25.1,30.41,NNW,332,0.0,1.0,54,0.00,,,0.00,VWS V14.01,2013-02-16 04:07:00,
2013-02-15 22:10:00,40.4,25.1,30.41,NNW,338,0.0,1.0,54,0.00,,,0.00,VWS V14.01,2013-02-16 04:10:00,
2013-02-15 22:12:00,40.4,26.0,30.41,NNW,331,0.0,0.0,56,0.00,,,0.00,VWS V14.01,2013-02-16 04:12:00,
2013-02-15 22:15:00,40.3,25.4,30.41,NNW,338,0.0,0.0,55,0.00,,,0.00,VWS V14.01,2013-02-16 04:15:00,
2013-02-15 22:17:00,40.4,26.4,30.41,NNW,331,0.0,0.0,57,0.00,,,0.00,VWS V14.01,2013-02-16 04:17:00,
2013-02-15 22:20:00,40.2,26.6,30.40,NNW,338,0.0,0.0,58,0.00,,,0.00,VWS V14.01,2013-02-16 04:20:00,
2013-02-15 22:22:00,40.1,26.5,30.40,NNW,331,0.0,0.0,58,0.00,,,0.00,VWS V14.01,2013-02-16 04:22:00,
2013-02-15 22:25:00,39.9,26.3,30.40,NNW,338,0.0,1.0,58,0.00,,,0.00,VWS V14.01,2013-02-16 04:25:00,
2013-02-15 22:27:00,39.9,26.3,30.40,NNW,332,2.0,2.0,58,0.00,,,0.00,VWS V14.01,2013-02-16 04:27:00,
2013-02-15 22:30:00,40.0,26.0,30.40,NNW,338,1.0,2.0,57,0.00,,,0.00,VWS V14.01,2013-02-16 04:30:00,
2013-02-15 22:32:00,40.0,26.4,30.40,NNW,331,1.0,2.0,58,0.00,,,0.00,VWS V14.01,2013-02-16 04:32:00,
2013-02-15 22:35:00,39.9,25.5,30.40,NNW,338,1.0,2.0,56,0.00,,,0.00,VWS V14.01,2013-02-16 04:35:00,
2013-02-15 22:37:00,39.8,25.4,30.40,NNW,332,0.0,0.0,56,0.00,,,0.00,VWS V14.01,2013-02-16 04:37:00,
2013-02-15 22:40:00,39.6,26.5,30.41,NNW,338,0.0,1.0,59,0.00,,,0.00,VWS V14.01,2013-02-16 04:40:00,
2013-02-15 22:42:00,39.4,25.5,30.41,NNW,331,0.0,1.0,57,0.00,,,0.00,VWS V14.01,2013-02-16 04:42:00,
2013-02-15 22:45:00,39.3,24.9,30.41,NNW,338,0.0,1.0,56,0.00,,,0.00,VWS V14.01,2013-02-16 04:45:00,
2013-02-15 22:47:00,39.2,24.8,30.41,NNW,332,2.0,2.0,56,0.00,,,0.00,VWS V14.01,2013-02-16 04:47:00,
2013-02-15 22:50:00,39.0,25.1,30.41,NNW,338,2.0,3.0,57,0.00,,,0.00,VWS V14.01,2013-02-16 04:50:00,
2013-02-15 22:51:00,38.9,25.0,30.41,NW,316,0.0,3.0,57,0.00,,,0.00,VWS V14.01,2013-02-16 04:51:00,
2013-02-15 22:55:00,38.8,24.9,30.41,NW,315,1.0,3.0,57,0.00,,,0.00,VWS V14.01,2013-02-16 04:55:00,
2013-02-15 22:56:00,38.8,24.9,30.41,NW,324,1.0,2.0,57,0.00,,,0.00,VWS V14.01,2013-02-16 04:56:00,
2013-02-15 23:00:00,38.7,23.9,30.41,NNW,333,2.0,3.0,55,0.00,,,0.00,VWS V14.01,2013-02-16 05:00:00,
2013-02-15 23:05:00,39.2,23.5,30.41,NNW,327,2.0,2.0,53,0.00,,,0.00,VWS V14.01,2013-02-16 05:05:00,
2013-02-15 23:10:00,39.9,23.7,30.42,NNW,336,3.0,4.0,52,0.00,,,0.00,VWS V14.01,2013-02-16 05:10:00,
2013-02-15 23:15:00,40.2,24.0,30.41,NNW,328,2.0,4.0,52,0.00,,,0.00,VWS V14.01,2013-02-16 05:15:00,
2013-02-15 23:20:00,39.9,24.2,30.41,NNW,329,2.0,3.0,53,0.00,,,0.00,VWS V14.01,2013-02-16 05:20:00,
2013-02-15 23:23:00,39.8,24.1,30.41,NNW,329,1.0,2.0,53,0.00,,,0.00,VWS V14.01,2013-02-16 05:23:00,
2013-02-15 23:25:00,39.7,24.0,30.41,NNW,338,1.0,2.0,53,0.00,,,0.00,VWS V14.01,2013-02-16 05:25:00,
2013-02-15 23:28:00,39.6,24.3,30.41,NW,317,2.0,2.0,54,0.00,,,0.00,VWS V14.01,2013-02-16 05:28:00,
2013-02-15 23:30:00,39.6,23.9,30.41,NW,315,1.0,2.0,53,0.00,,,0.00,VWS V14.01,2013-02-16 05:30:00,
2013-02-15 23:33:00,39.6,23.9,30.41,NW,319,1.0,2.0,53,0.00,,,0.00,VWS V14.01,2013-02-16 05:33:00,
2013-02-15 23:35:00,39.4,24.1,30.41,NW,315,1.0,2.0,54,0.00,,,0.00,VWS V14.01,2013-02-16 05:35:00,
2013-02-15 23:38:00,39.1,24.3,30.41,NW,319,0.0,1.0,55,0.00,,,0.00,VWS V14.01,2013-02-16 05:38:00,
2013-02-15 23:40:00,38.8,24.5,30.41,NW,315,0.0,1.0,56,0.00,,,0.00,VWS V14.01,2013-02-16 05:40:00,
2013-02-15 23:43:00,38.5,24.2,30.41,NW,320,1.0,1.0,56,0.00,,,0.00,VWS V14.01,2013-02-16 05:43:00,
2013-02-15 23:45:00,38.3,23.6,30.41,NW,315,1.0,2.0,55,0.00,,,0.00,VWS V14.01,2013-02-16 05:45:00,
2013-02-15 23:48:00,38.2,23.5,30.41,NW,320,1.0,2.0,55,0.00,,,0.00,VWS V14.01,2013-02-16 05:48:00,
2013-02-15 23:50:00,38.2,23.5,30.41,NW,315,1.0,2.0,55,0.00,,,0.00,VWS V14.01,2013-02-16 05:50:00,
2013-02-15 23:53:00,38.2,23.9,30.41,NW,321,1.0,2.0,56,0.00,,,0.00,VWS V14.01,2013-02-16 05:53:00,
2013-02-15 23:55:00,38.1,23.8,30.41,NW,315,2.0,3.0,56,0.00,,,0.00,VWS V14.01,2013-02-16 05:55:00,
2013-02-15 23:58:00,38.2,23.9,30.42,NW,326,2.0,3.0,56,0.00,,,0.00,VWS V14.01,2013-02-16 05:58:00,